createdAt,value
2018-11-27T00:02:06.440Z,97.50
2018-11-27T00:04:34.593Z,97.50
2018-11-27T00:07:02.718Z,97.60
2018-11-27T00:09:30.867Z,97.60
2018-11-27T00:11:59.014Z,97.60
2018-11-27T00:14:27.134Z,97.60
2018-11-27T00:16:55.655Z,97.70
2018-11-27T00:19:23.775Z,97.60
2018-11-27T00:21:51.916Z,97.60
2018-11-27T00:24:20.024Z,97.80
2018-11-27T00:26:48.767Z,97.60
2018-11-27T00:29:16.931Z,97.80
2018-11-27T00:31:45.046Z,97.70
2018-11-27T00:34:13.164Z,97.70
2018-11-27T00:36:41.287Z,98.00
2018-11-27T00:39:11.811Z,97.80
2018-11-27T00:41:41.474Z,97.70
2018-11-27T00:44:09.964Z,97.80
2018-11-27T00:46:38.088Z,97.80
2018-11-27T00:49:06.406Z,98.00
2018-11-27T00:51:34.603Z,97.90
2018-11-27T00:54:02.706Z,98.00
2018-11-27T00:56:30.829Z,98.00
2018-11-27T00:58:58.988Z,98.00
2018-11-27T01:01:27.119Z,97.90
2018-11-27T01:03:55.234Z,98.10
2018-11-27T01:06:23.373Z,98.20
2018-11-27T01:08:51.544Z,98.20
2018-11-27T01:11:19.670Z,98.40
2018-11-27T01:13:48.772Z,98.40
2018-11-27T01:16:16.946Z,98.40
2018-11-27T01:18:45.093Z,98.40
2018-11-27T01:21:13.222Z,98.30
2018-11-27T01:23:41.322Z,98.30
2018-11-27T01:26:09.458Z,98.40
2018-11-27T01:28:37.570Z,98.90
2018-11-27T01:31:05.942Z,98.60
2018-11-27T01:33:34.056Z,98.60
2018-11-27T01:36:02.470Z,98.60
2018-11-27T01:38:30.614Z,98.60
2018-11-27T01:40:58.761Z,98.60
2018-11-27T01:43:27.800Z,98.50
2018-11-27T01:45:54.989Z,98.50
2018-11-27T01:48:23.099Z,98.50
2018-11-27T01:50:51.202Z,98.60
2018-11-27T01:53:19.307Z,98.60
2018-11-27T01:55:47.666Z,98.70
2018-11-27T01:58:15.784Z,98.60
2018-11-27T02:00:43.917Z,98.60
2018-11-27T02:03:12.002Z,98.80
2018-11-27T02:05:40.138Z,98.80
2018-11-27T02:08:08.264Z,98.80
2018-11-27T02:10:36.545Z,98.80
2018-11-27T02:13:05.088Z,98.70
2018-11-27T02:15:33.182Z,98.80
2018-11-27T02:18:01.328Z,98.80
2018-11-27T02:20:29.495Z,98.80
2018-11-27T02:22:57.626Z,98.80
2018-11-27T02:25:26.806Z,98.80
2018-11-27T02:27:54.952Z,98.90
2018-11-27T02:30:23.980Z,98.90
2018-11-27T02:32:52.101Z,98.90
2018-11-27T02:35:23.199Z,98.90
2018-11-27T02:37:54.073Z,99.00
2018-11-27T02:40:22.210Z,99.10
2018-11-27T02:42:50.350Z,99.20
2018-11-27T02:45:19.482Z,99.20
2018-11-27T02:47:48.318Z,99.20
2018-11-27T02:50:17.742Z,99.30
2018-11-27T02:52:45.865Z,99.30
2018-11-27T02:55:14.890Z,99.40
2018-11-27T02:57:43.950Z,99.40
2018-11-27T03:00:13.338Z,99.50
2018-11-27T03:02:41.544Z,99.50
2018-11-27T03:05:42.973Z,99.50
2018-11-27T03:08:11.086Z,99.50
2018-11-27T03:10:39.212Z,99.80
2018-11-27T03:13:07.323Z,99.80
2018-11-27T03:15:35.493Z,99.90
2018-11-27T03:18:03.608Z,99.70
2018-11-27T03:20:31.753Z,99.70
2018-11-27T03:22:59.875Z,99.50
2018-11-27T03:25:28.004Z,99.50
2018-11-27T03:27:56.111Z,99.80
2018-11-27T03:30:25.344Z,99.50
2018-11-27T03:32:53.482Z,99.50
2018-11-27T03:35:22.558Z,99.40
2018-11-27T03:37:51.423Z,99.40
2018-11-27T03:40:21.491Z,99.40
2018-11-27T03:42:49.726Z,99.40
2018-11-27T03:45:18.498Z,99.40
2018-11-27T03:47:46.665Z,99.40
2018-11-27T03:50:20.815Z,99.40
2018-11-27T03:52:49.165Z,99.40
2018-11-27T03:55:17.269Z,99.40
2018-11-27T03:57:45.401Z,99.30
2018-11-27T04:00:18.489Z,99.30
2018-11-27T04:02:54.510Z,99.40
2018-11-27T04:05:23.701Z,99.40
2018-11-27T04:07:51.894Z,99.30
2018-11-27T04:10:20.289Z,99.30
2018-11-27T04:12:49.195Z,99.30
2018-11-27T04:15:17.310Z,99.30
2018-11-27T04:17:45.498Z,99.20
2018-11-27T04:20:13.896Z,99.20
2018-11-27T04:22:42.865Z,99.20
2018-11-27T04:25:13.999Z,99.30
2018-11-27T04:27:42.750Z,99.30
2018-11-27T04:30:17.260Z,99.30
2018-11-27T04:32:45.461Z,99.40
2018-11-27T04:35:14.844Z,99.40
2018-11-27T04:37:42.943Z,99.40
2018-11-27T04:40:13.989Z,99.50
2018-11-27T04:42:42.120Z,99.40
2018-11-27T04:45:11.780Z,99.50
2018-11-27T04:47:39.968Z,99.60
2018-11-27T04:50:10.520Z,99.90
2018-11-27T04:52:38.754Z,99.70
2018-11-27T04:55:08.707Z,99.80
2018-11-27T04:57:36.877Z,99.70
2018-11-27T05:00:09.148Z,99.80
2018-11-27T05:02:37.253Z,99.80
2018-11-27T05:05:06.410Z,99.90
2018-11-27T05:07:34.578Z,99.80
2018-11-27T05:10:02.844Z,99.90
2018-11-27T05:12:31.593Z,99.90
2018-11-27T05:14:59.758Z,99.90
2018-11-27T05:17:27.930Z,99.80
2018-11-27T05:19:56.122Z,99.90
2018-11-27T05:22:24.246Z,99.90
2018-11-27T05:24:52.366Z,99.90
2018-11-27T05:27:21.510Z,99.80
2018-11-27T05:29:49.629Z,99.90
2018-11-27T05:32:17.750Z,99.90
2018-11-27T05:34:45.892Z,99.80
2018-11-27T05:37:14.046Z,99.90
2018-11-27T05:39:42.398Z,99.90
2018-11-27T05:42:10.538Z,99.90
2018-11-27T05:44:38.662Z,99.90
2018-11-27T05:47:06.954Z,99.90
2018-11-27T05:49:35.097Z,99.90
2018-11-27T05:52:03.229Z,99.90
2018-11-27T05:54:31.363Z,99.90
2018-11-27T05:56:59.511Z,99.90
2018-11-27T05:59:27.674Z,99.90
2018-11-27T06:01:55.814Z,99.90
2018-11-27T06:04:23.962Z,99.90
2018-11-27T06:06:52.146Z,99.90
2018-11-27T06:09:20.334Z,99.90
2018-11-27T06:11:49.449Z,99.90
2018-11-27T06:14:17.598Z,99.90
2018-11-27T06:16:45.759Z,99.90
2018-11-27T06:19:13.918Z,99.90
2018-11-27T06:21:42.037Z,99.90
2018-11-27T06:24:10.228Z,99.90
2018-11-27T06:26:38.353Z,99.90
2018-11-27T06:29:06.484Z,99.90
2018-11-27T06:31:34.641Z,99.90
2018-11-27T06:34:02.780Z,99.90
2018-11-27T06:36:30.911Z,99.90
2018-11-27T06:38:59.087Z,99.90
2018-11-27T06:41:27.198Z,99.90
2018-11-27T06:43:55.324Z,99.90
2018-11-27T06:46:23.454Z,99.90
2018-11-27T06:48:51.766Z,99.90
2018-11-27T06:51:19.882Z,99.80
2018-11-27T06:53:48.059Z,99.80
2018-11-27T06:56:16.244Z,99.80
2018-11-27T06:58:44.359Z,99.90
2018-11-27T07:01:12.478Z,99.90
2018-11-27T07:03:40.697Z,99.90
2018-11-27T07:06:08.823Z,99.90
2018-11-27T07:08:36.980Z,99.90
2018-11-27T07:11:05.232Z,99.70
2018-11-27T07:13:33.349Z,99.60
2018-11-27T07:16:01.527Z,99.70
2018-11-27T07:18:29.728Z,99.70
2018-11-27T07:20:57.863Z,99.70
2018-11-27T07:23:25.973Z,99.70
2018-11-27T07:25:54.130Z,99.80
2018-11-27T07:28:22.262Z,99.60
2018-11-27T07:30:50.407Z,99.90
2018-11-27T07:33:18.590Z,99.80
2018-11-27T07:35:46.698Z,99.80
2018-11-27T07:38:15.068Z,99.80
2018-11-27T07:40:43.458Z,99.70
2018-11-27T07:43:12.557Z,99.60
2018-11-27T07:45:40.787Z,99.50
2018-11-27T07:48:09.498Z,99.40
2018-11-27T07:50:37.641Z,99.40
2018-11-27T07:53:06.141Z,99.10
2018-11-27T07:55:34.258Z,99.10
2018-11-27T07:58:02.594Z,99.00
2018-11-27T08:00:30.731Z,99.00
2018-11-27T08:02:59.187Z,98.90
2018-11-27T08:05:32.462Z,99.00
2018-11-27T08:08:00.630Z,98.90
2018-11-27T08:10:29.960Z,98.80
2018-11-27T08:12:58.087Z,98.50
2018-11-27T08:15:27.297Z,98.50
2018-11-27T08:17:55.430Z,98.30
2018-11-27T08:20:28.616Z,98.40
2018-11-27T08:22:56.703Z,98.40
2018-11-27T08:25:25.459Z,98.50
2018-11-27T08:27:53.602Z,98.30
2018-11-27T08:30:22.231Z,98.30
2018-11-27T08:32:50.627Z,98.60
2018-11-27T08:35:21.941Z,98.60
2018-11-27T08:37:51.133Z,98.50
2018-11-27T08:40:20.400Z,98.90
2018-11-27T08:42:48.526Z,98.30
2018-11-27T08:45:20.742Z,98.40
2018-11-27T08:47:50.479Z,98.40
2018-11-27T08:50:19.836Z,98.20
2018-11-27T08:52:50.219Z,98.10
2018-11-27T08:55:20.825Z,97.90
2018-11-27T08:57:50.396Z,97.90
2018-11-27T09:00:19.503Z,97.80
2018-11-27T09:02:47.622Z,97.90
2018-11-27T09:05:15.766Z,97.90
2018-11-27T09:07:44.323Z,97.80
2018-11-27T09:10:18.309Z,97.10
2018-11-27T09:12:46.470Z,96.90
2018-11-27T09:15:15.583Z,96.90
2018-11-27T09:17:45.523Z,97.30
2018-11-27T09:20:13.781Z,96.70
2018-11-27T09:22:41.926Z,96.80
2018-11-27T09:25:12.857Z,96.70
2018-11-27T09:27:41.591Z,96.60
2018-11-27T09:30:11.655Z,96.40
2018-11-27T09:32:39.791Z,96.50
2018-11-27T09:35:08.229Z,96.40
2018-11-27T09:37:36.385Z,96.30
2018-11-27T09:40:06.079Z,96.10
2018-11-27T09:42:34.214Z,96.80
2018-11-27T09:45:02.366Z,96.40
2018-11-27T09:47:30.502Z,96.40
2018-11-27T09:49:58.910Z,96.20
2018-11-27T09:52:27.059Z,96.20
2018-11-27T09:54:55.197Z,96.10
2018-11-27T09:57:23.344Z,95.90
2018-11-27T09:59:51.658Z,96.00
2018-11-27T10:02:19.802Z,96.00
2018-11-27T10:04:47.940Z,95.70
2018-11-27T10:07:16.154Z,95.80
2018-11-27T10:09:44.295Z,95.80
2018-11-27T10:12:12.548Z,95.90
2018-11-27T10:14:41.203Z,95.40
2018-11-27T10:17:09.336Z,95.30
2018-11-27T10:19:37.515Z,95.50
2018-11-27T10:22:05.643Z,95.40
2018-11-27T10:24:33.815Z,95.00
2018-11-27T10:27:02.067Z,94.70
2018-11-27T10:29:30.383Z,94.90
2018-11-27T10:31:58.494Z,94.50
2018-11-27T10:34:26.632Z,94.50
2018-11-27T10:36:54.763Z,94.40
2018-11-27T10:39:22.897Z,94.00
2018-11-27T10:41:51.029Z,93.80
2018-11-27T10:44:19.162Z,93.90
2018-11-27T10:46:47.314Z,93.70
2018-11-27T10:49:15.419Z,93.60
2018-11-27T10:51:43.596Z,93.70
2018-11-27T10:54:11.694Z,93.70
2018-11-27T10:56:39.812Z,93.80
2018-11-27T10:59:08.115Z,94.00
2018-11-27T11:01:41.705Z,94.00
2018-11-27T11:04:09.825Z,94.30
2018-11-27T11:06:38.230Z,94.20
2018-11-27T11:09:08.453Z,93.80
2018-11-27T11:11:36.803Z,93.50
2018-11-27T11:14:05.103Z,93.30
2018-11-27T11:16:33.218Z,93.50
2018-11-27T11:19:01.758Z,93.50
2018-11-27T11:21:29.899Z,93.30
2018-11-27T11:23:58.023Z,93.40
2018-11-27T11:26:26.125Z,92.90
2018-11-27T11:28:54.254Z,93.30
2018-11-27T11:31:22.362Z,93.10
2018-11-27T11:33:50.500Z,92.80
2018-11-27T11:36:18.710Z,93.00
2018-11-27T11:38:46.829Z,92.60
2018-11-27T11:41:15.125Z,92.30
2018-11-27T11:43:43.273Z,91.70
2018-11-27T11:46:11.406Z,91.00
2018-11-27T11:48:39.577Z,91.00
2018-11-27T11:51:07.869Z,91.30
2018-11-27T11:53:36.210Z,91.10
2018-11-27T11:56:04.493Z,90.50
2018-11-27T11:58:32.613Z,90.90
2018-11-27T12:01:00.732Z,91.50
2018-11-27T12:03:28.833Z,91.40
2018-11-27T12:05:57.257Z,91.60
2018-11-27T12:08:25.453Z,91.40
2018-11-27T12:10:53.610Z,91.10
2018-11-27T12:13:21.791Z,91.20
2018-11-27T12:15:50.338Z,90.60
2018-11-27T12:18:18.508Z,90.10
2018-11-27T12:20:46.669Z,90.00
2018-11-27T12:23:14.790Z,90.10
2018-11-27T12:25:42.951Z,90.40
2018-11-27T12:28:14.689Z,90.00
2018-11-27T12:30:39.407Z,90.60
2018-11-27T12:33:07.619Z,90.90
2018-11-27T12:35:36.364Z,91.00
2018-11-27T12:38:04.525Z,91.00
2018-11-27T12:40:32.681Z,91.00
2018-11-27T12:43:00.820Z,90.30
2018-11-27T12:45:30.790Z,90.50
2018-11-27T12:48:00.051Z,90.20
2018-11-27T12:50:37.163Z,89.60
2018-11-27T12:53:06.334Z,88.70
2018-11-27T12:55:34.739Z,89.00
2018-11-27T12:58:03.532Z,88.00
2018-11-27T13:00:32.479Z,88.80
2018-11-27T13:03:00.602Z,90.20
2018-11-27T13:05:33.498Z,90.50
2018-11-27T13:08:03.152Z,90.60
2018-11-27T13:10:31.288Z,91.50
2018-11-27T13:12:59.410Z,90.90
2018-11-27T13:15:27.569Z,91.00
2018-11-27T13:17:55.693Z,90.70
2018-11-27T13:20:23.861Z,90.70
2018-11-27T13:22:52.249Z,90.80
2018-11-27T13:25:22.996Z,90.30
2018-11-27T13:27:52.085Z,90.50
2018-11-27T13:30:25.536Z,90.90
2018-11-27T13:32:55.474Z,91.00
2018-11-27T13:35:23.582Z,90.90
2018-11-27T13:37:51.713Z,90.90
2018-11-27T13:40:19.834Z,91.30
2018-11-27T13:42:47.987Z,91.30
2018-11-27T13:45:16.291Z,91.00
2018-11-27T13:47:44.584Z,91.00
2018-11-27T13:50:14.816Z,91.40
2018-11-27T13:52:43.191Z,91.50
2018-11-27T13:55:15.897Z,91.60
2018-11-27T13:57:44.086Z,91.30
2018-11-27T14:00:14.599Z,90.00
2018-11-27T14:02:44.095Z,87.60
2018-11-27T14:05:15.840Z,88.30
2018-11-27T14:07:44.020Z,87.80
2018-11-27T14:10:12.454Z,86.60
2018-11-27T14:12:40.608Z,86.50
2018-11-27T14:15:16.541Z,86.30
2018-11-27T14:17:44.826Z,86.20
2018-11-27T14:20:13.503Z,86.40
2018-11-27T14:22:45.020Z,87.20
2018-11-27T14:25:23.069Z,86.40
2018-11-27T14:28:05.141Z,87.30
2018-11-27T14:33:31.010Z,86.90
2018-11-27T14:35:59.182Z,85.80
2018-11-27T14:38:27.364Z,86.00
2018-11-27T14:40:55.535Z,85.70
2018-11-27T14:43:23.658Z,85.70
2018-11-27T14:45:52.074Z,84.70
2018-11-27T14:48:20.541Z,86.50
2018-11-27T14:50:48.754Z,87.20
2018-11-27T14:56:16.946Z,85.20
2018-11-27T14:58:50.975Z,85.50
2018-11-27T15:01:18.245Z,85.50
2018-11-27T15:03:46.358Z,85.40
2018-11-27T15:06:14.550Z,85.80
2018-11-27T15:08:42.817Z,84.30
2018-11-27T15:11:12.813Z,84.30
2018-11-27T15:13:39.131Z,83.00
2018-11-27T15:16:07.240Z,84.60
2018-11-27T15:18:35.422Z,85.60
2018-11-27T15:21:03.562Z,84.10
2018-11-27T15:23:31.694Z,84.60
2018-11-27T15:25:59.834Z,83.80
2018-11-27T15:28:27.982Z,83.70
2018-11-27T15:30:56.143Z,83.60
2018-11-27T15:33:24.282Z,83.70
2018-11-27T15:35:52.484Z,85.20
2018-11-27T15:38:20.661Z,84.10
2018-11-27T15:40:48.818Z,85.40
2018-11-27T15:43:16.965Z,85.10
2018-11-27T15:45:45.305Z,85.50
2018-11-27T15:48:13.434Z,86.40
2018-11-27T15:50:41.638Z,86.60
2018-11-27T15:53:09.832Z,84.80
2018-11-27T15:55:39.096Z,85.00
2018-11-27T15:58:11.522Z,85.20
2018-11-27T16:00:41.258Z,85.50
2018-11-27T16:03:09.404Z,84.90
2018-11-27T16:05:38.211Z,85.00
2018-11-27T16:08:07.311Z,85.90
2018-11-27T16:10:35.406Z,85.10
2018-11-27T16:13:03.848Z,85.80
2018-11-27T16:15:31.981Z,85.70
2018-11-27T16:18:00.100Z,85.80
2018-11-27T16:20:28.235Z,85.90
2018-11-27T16:22:56.358Z,85.90
2018-11-27T16:25:25.759Z,85.20
2018-11-27T16:27:53.235Z,86.10
2018-11-27T16:30:26.335Z,85.80
2018-11-27T16:32:54.526Z,85.50
2018-11-27T16:35:22.715Z,85.80
2018-11-27T16:37:52.776Z,86.90
2018-11-27T16:40:24.246Z,85.80
2018-11-27T16:42:52.369Z,85.80
2018-11-27T16:45:21.467Z,85.80
2018-11-27T16:47:49.814Z,84.10
2018-11-27T16:50:18.333Z,83.90
2018-11-27T16:52:46.673Z,84.00
2018-11-27T16:55:16.743Z,86.30
2018-11-27T16:57:44.972Z,86.10
2018-11-27T17:00:20.294Z,86.50
2018-11-27T17:02:50.351Z,85.60
2018-11-27T17:05:17.377Z,85.90
2018-11-27T17:07:45.561Z,86.60
2018-11-27T17:10:14.805Z,87.70
2018-11-27T17:12:43.358Z,86.30
2018-11-27T17:15:16.574Z,84.80
2018-11-27T17:17:44.812Z,83.60
2018-11-27T17:20:16.216Z,85.20
2018-11-27T17:25:18.931Z,85.00
2018-11-27T17:27:47.312Z,86.20
2018-11-27T17:30:19.374Z,86.50
2018-11-27T17:32:47.669Z,87.00
2018-11-27T17:35:15.834Z,86.60
2018-11-27T17:37:43.994Z,85.10
2018-11-27T17:40:12.970Z,85.00
2018-11-27T17:42:41.219Z,86.40
2018-11-27T17:45:14.279Z,87.20
2018-11-27T17:47:42.833Z,85.50
2018-11-27T17:50:13.182Z,85.90
2018-11-27T17:52:41.670Z,85.80
2018-11-27T17:55:10.662Z,84.40
2018-11-27T17:57:39.161Z,85.20
2018-11-27T18:00:25.541Z,84.40
2018-11-27T18:02:55.114Z,84.10
2018-11-27T18:05:23.275Z,84.50
2018-11-27T18:07:51.733Z,85.50
2018-11-27T18:10:20.542Z,85.10
2018-11-27T18:12:48.651Z,86.00
2018-11-27T18:15:18.039Z,86.00
2018-11-27T18:17:46.145Z,85.50
2018-11-27T18:20:14.417Z,85.40
2018-11-27T18:22:42.607Z,85.20
2018-11-27T18:25:12.683Z,85.10
2018-11-27T18:27:41.287Z,84.40
2018-11-27T18:30:13.485Z,85.10
2018-11-27T18:32:41.626Z,85.30
2018-11-27T18:35:12.686Z,85.40
2018-11-27T18:37:40.894Z,86.20
2018-11-27T18:40:10.414Z,86.50
2018-11-27T18:42:38.594Z,86.70
2018-11-27T18:45:21.179Z,87.50
2018-11-27T18:47:49.300Z,87.70
2018-11-27T18:50:17.513Z,88.70
2018-11-27T18:52:45.651Z,89.00
2018-11-27T18:55:14.766Z,89.30
2018-11-27T18:57:43.615Z,89.50
2018-11-27T19:00:17.859Z,89.90
2018-11-27T19:02:46.094Z,90.10
2018-11-27T19:05:14.277Z,90.20
2018-11-27T19:07:42.455Z,90.20
2018-11-27T19:10:12.792Z,90.50
2018-11-27T19:12:40.906Z,90.50
2018-11-27T19:15:11.617Z,90.50
2018-11-27T19:17:39.793Z,90.50
2018-11-27T19:20:10.722Z,90.50
2018-11-27T19:22:38.907Z,90.70
2018-11-27T19:25:10.084Z,90.80
2018-11-27T19:27:38.315Z,91.00
2018-11-27T19:30:16.200Z,90.90
2018-11-27T19:32:43.749Z,90.90
2018-11-27T19:35:13.111Z,90.90
2018-11-27T19:37:41.215Z,90.70
2018-11-27T19:40:12.505Z,91.00
2018-11-27T19:42:40.694Z,91.30
2018-11-27T19:45:13.047Z,91.00
2018-11-27T19:47:41.213Z,90.90
2018-11-27T19:50:10.808Z,91.00
2018-11-27T19:52:38.943Z,91.10
2018-11-27T19:55:08.946Z,91.10
2018-11-27T19:57:37.183Z,91.00
2018-11-27T20:00:12.060Z,91.10
2018-11-27T20:02:40.591Z,91.10
2018-11-27T20:05:09.825Z,91.10
2018-11-27T20:07:37.941Z,91.20
2018-11-27T20:10:08.011Z,91.20
2018-11-27T20:12:36.153Z,91.20
2018-11-27T20:15:05.700Z,91.10
2018-11-27T20:17:33.814Z,91.40
2018-11-27T20:20:01.954Z,91.60
2018-11-27T20:22:30.108Z,91.50
2018-11-27T20:24:58.239Z,91.30
2018-11-27T20:27:26.355Z,91.40
2018-11-27T20:29:54.537Z,91.20
2018-11-27T20:32:22.653Z,91.30
2018-11-27T20:34:51.357Z,91.20
2018-11-27T20:37:19.535Z,91.20
2018-11-27T20:39:47.702Z,91.20
2018-11-27T20:42:15.800Z,91.10
2018-11-27T20:44:43.910Z,91.10
2018-11-27T20:47:12.030Z,90.90
2018-11-27T20:49:40.447Z,90.80
2018-11-27T20:52:08.597Z,90.70
2018-11-27T20:54:36.706Z,90.70
2018-11-27T20:57:04.854Z,90.70
2018-11-27T20:59:32.969Z,90.90
2018-11-27T21:02:01.145Z,90.90
2018-11-27T21:04:29.310Z,90.90
2018-11-27T21:06:57.447Z,91.10
2018-11-27T21:09:25.578Z,91.20
2018-11-27T21:11:53.723Z,91.40
2018-11-27T21:14:21.860Z,91.50
2018-11-27T21:16:50.023Z,91.70
2018-11-27T21:19:18.178Z,91.70
2018-11-27T21:21:46.310Z,91.70
2018-11-27T21:24:14.470Z,91.80
2018-11-27T21:26:42.581Z,91.80
2018-11-27T21:29:10.797Z,91.80
2018-11-27T21:31:38.902Z,91.90
2018-11-27T21:34:07.029Z,92.00
2018-11-27T21:36:35.191Z,92.00
2018-11-27T21:39:04.091Z,92.10
2018-11-27T21:41:32.232Z,92.40
2018-11-27T21:44:00.362Z,92.40
2018-11-27T21:46:28.481Z,92.40
2018-11-27T21:48:56.841Z,92.50
2018-11-27T21:51:24.966Z,92.70
2018-11-27T21:53:53.110Z,92.60
2018-11-27T21:56:21.314Z,92.60
2018-11-27T21:58:49.399Z,92.70
2018-11-27T22:01:17.578Z,92.70
2018-11-27T22:03:45.677Z,92.80
2018-11-27T22:06:13.800Z,92.90
2018-11-27T22:08:48.656Z,92.90
2018-11-27T22:11:16.939Z,92.80
2018-11-27T22:13:45.069Z,93.00
2018-11-27T22:16:13.186Z,93.00
2018-11-27T22:18:41.314Z,93.00
2018-11-27T22:21:09.465Z,93.10
2018-11-27T22:23:37.570Z,93.20
2018-11-27T22:26:05.723Z,93.40
2018-11-27T22:28:33.854Z,93.50
2018-11-27T22:31:02.420Z,93.50
2018-11-27T22:33:30.590Z,93.40
2018-11-27T22:35:58.718Z,93.40
2018-11-27T22:38:26.887Z,93.50
2018-11-27T22:40:55.000Z,93.40
2018-11-27T22:43:23.128Z,93.40
2018-11-27T22:45:51.694Z,93.50
2018-11-27T22:48:20.185Z,93.50
2018-11-27T22:50:48.046Z,93.60
2018-11-27T22:53:16.221Z,93.50
2018-11-27T22:55:44.310Z,93.50
2018-11-27T22:58:12.455Z,93.60
2018-11-27T23:00:46.035Z,93.60
2018-11-27T23:03:14.166Z,93.60
2018-11-27T23:05:42.293Z,93.50
2018-11-27T23:08:10.430Z,93.50
2018-11-27T23:10:39.680Z,93.70
2018-11-27T23:13:07.839Z,93.80
2018-11-27T23:15:35.959Z,93.70
2018-11-27T23:18:04.116Z,93.70
2018-11-27T23:20:32.247Z,93.60
2018-11-27T23:23:00.386Z,93.60
2018-11-27T23:25:28.518Z,93.60
2018-11-27T23:27:56.685Z,93.70
2018-11-27T23:30:25.650Z,93.70
2018-11-27T23:32:53.803Z,93.70
2018-11-27T23:35:21.921Z,93.60
2018-11-27T23:37:50.047Z,93.70
2018-11-27T23:40:19.179Z,93.80
2018-11-27T23:42:47.453Z,93.80
2018-11-27T23:45:21.134Z,94.00
2018-11-27T23:47:49.271Z,93.90
2018-11-27T23:50:18.309Z,94.00
2018-11-27T23:52:46.597Z,94.00
2018-11-27T23:55:15.352Z,94.00
2018-11-27T23:57:43.727Z,94.20
